sensor_id;sensor_type;location;lat;lon;timestamp;P1;durP1;ratioP1;P2;durP2;ratioP2
13250;SDS011;6692;50.710;7.180;2024-01-27T00:00:40;3.10;;;2.30;;
13250;SDS011;6692;50.710;7.180;2024-01-27T00:02:41;4.50;;;2.10;;
13250;SDS011;6692;50.710;7.180;2024-01-27T00:04:41;5.13;;;2.83;;
13250;SDS011;6692;50.710;7.180;2024-01-27T00:06:42;3.47;;;2.70;;
13250;SDS011;6692;50.710;7.180;2024-01-27T00:08:43;6.37;;;3.50;;
13250;SDS011;6692;50.710;7.180;2024-01-27T00:10:44;3.17;;;2.87;;
13250;SDS011;6692;50.710;7.180;2024-01-27T00:12:44;3.37;;;2.87;;
13250;SDS011;6692;50.710;7.180;2024-01-27T00:14:45;4.57;;;2.97;;
13250;SDS011;6692;50.710;7.180;2024-01-27T00:16:46;6.33;;;3.40;;
13250;SDS011;6692;50.710;7.180;2024-01-27T00:18:47;7.50;;;3.20;;
13250;SDS011;6692;50.710;7.180;2024-01-27T00:20:48;4.05;;;3.22;;
13250;SDS011;6692;50.710;7.180;2024-01-27T00:22:49;5.50;;;3.80;;
13250;SDS011;6692;50.710;7.180;2024-01-27T00:24:50;4.53;;;3.30;;
13250;SDS011;6692;50.710;7.180;2024-01-27T00:26:51;6.10;;;3.85;;
13250;SDS011;6692;50.710;7.180;2024-01-27T00:28:53;3.70;;;3.20;;
13250;SDS011;6692;50.710;7.180;2024-01-27T00:30:54;6.55;;;3.30;;
13250;SDS011;6692;50.710;7.180;2024-01-27T00:32:55;6.37;;;3.43;;
13250;SDS011;6692;50.710;7.180;2024-01-27T00:34:55;3.90;;;3.00;;
13250;SDS011;6692;50.710;7.180;2024-01-27T00:36:56;5.90;;;3.17;;
13250;SDS011;6692;50.710;7.180;2024-01-27T00:38:57;4.33;;;2.73;;
13250;SDS011;6692;50.710;7.180;2024-01-27T00:40:58;4.40;;;3.03;;
13250;SDS011;6692;50.710;7.180;2024-01-27T00:42:59;4.07;;;3.13;;
13250;SDS011;6692;50.710;7.180;2024-01-27T00:45:00;3.73;;;3.23;;
13250;SDS011;6692;50.710;7.180;2024-01-27T00:47:00;6.63;;;2.80;;
13250;SDS011;6692;50.710;7.180;2024-01-27T00:49:01;3.93;;;2.83;;
13250;SDS011;6692;50.710;7.180;2024-01-27T00:51:02;3.63;;;2.60;;
13250;SDS011;6692;50.710;7.180;2024-01-27T00:53:03;4.13;;;2.70;;
13250;SDS011;6692;50.710;7.180;2024-01-27T00:55:04;6.03;;;3.00;;
13250;SDS011;6692;50.710;7.180;2024-01-27T00:57:06;3.50;;;2.70;;
13250;SDS011;6692;50.710;7.180;2024-01-27T00:59:07;4.20;;;3.20;;
13250;SDS011;6692;50.710;7.180;2024-01-27T01:01:08;5.25;;;2.90;;
13250;SDS011;6692;50.710;7.180;2024-01-27T01:03:09;6.87;;;3.37;;
13250;SDS011;6692;50.710;7.180;2024-01-27T01:05:10;3.13;;;2.80;;
13250;SDS011;6692;50.710;7.180;2024-01-27T01:07:11;4.97;;;2.97;;
13250;SDS011;6692;50.710;7.180;2024-01-27T01:09:12;5.43;;;2.60;;
13250;SDS011;6692;50.710;7.180;2024-01-27T01:11:12;3.33;;;2.90;;
13250;SDS011;6692;50.710;7.180;2024-01-27T01:13:13;3.70;;;2.80;;
13250;SDS011;6692;50.710;7.180;2024-01-27T01:15:14;4.53;;;2.90;;
13250;SDS011;6692;50.710;7.180;2024-01-27T01:17:14;3.47;;;2.60;;
13250;SDS011;6692;50.710;7.180;2024-01-27T01:19:15;5.03;;;2.60;;
13250;SDS011;6692;50.710;7.180;2024-01-27T01:21:16;2.77;;;2.50;;
13250;SDS011;6692;50.710;7.180;2024-01-27T01:23:17;3.33;;;2.70;;
13250;SDS011;6692;50.710;7.180;2024-01-27T01:25:17;4.03;;;2.70;;
13250;SDS011;6692;50.710;7.180;2024-01-27T01:27:18;3.70;;;2.67;;
13250;SDS011;6692;50.710;7.180;2024-01-27T01:29:19;3.13;;;2.43;;
13250;SDS011;6692;50.710;7.180;2024-01-27T01:31:20;3.23;;;2.40;;
13250;SDS011;6692;50.710;7.180;2024-01-27T01:33:20;4.23;;;2.87;;
13250;SDS011;6692;50.710;7.180;2024-01-27T01:35:21;6.27;;;2.63;;
13250;SDS011;6692;50.710;7.180;2024-01-27T01:37:22;4.67;;;2.60;;
13250;SDS011;6692;50.710;7.180;2024-01-27T01:39:23;4.80;;;2.80;;
13250;SDS011;6692;50.710;7.180;2024-01-27T01:41:23;4.97;;;2.77;;
13250;SDS011;6692;50.710;7.180;2024-01-27T01:43:24;3.33;;;2.53;;
13250;SDS011;6692;50.710;7.180;2024-01-27T01:45:25;3.70;;;2.57;;
13250;SDS011;6692;50.710;7.180;2024-01-27T01:47:25;2.67;;;2.37;;
13250;SDS011;6692;50.710;7.180;2024-01-27T01:49:27;3.83;;;2.47;;
13250;SDS011;6692;50.710;7.180;2024-01-27T01:51:27;3.50;;;2.45;;
13250;SDS011;6692;50.710;7.180;2024-01-27T01:53:28;3.57;;;2.50;;
13250;SDS011;6692;50.710;7.180;2024-01-27T01:55:29;3.10;;;1.83;;
13250;SDS011;6692;50.710;7.180;2024-01-27T01:57:30;4.93;;;2.20;;
13250;SDS011;6692;50.710;7.180;2024-01-27T01:59:30;2.23;;;2.03;;
13250;SDS011;6692;50.710;7.180;2024-01-27T02:01:31;2.60;;;2.20;;
13250;SDS011;6692;50.710;7.180;2024-01-27T02:03:32;2.83;;;2.23;;
13250;SDS011;6692;50.710;7.180;2024-01-27T02:05:32;2.60;;;2.17;;
13250;SDS011;6692;50.710;7.180;2024-01-27T02:07:33;2.10;;;1.73;;
13250;SDS011;6692;50.710;7.180;2024-01-27T02:09:34;2.43;;;2.23;;
13250;SDS011;6692;50.710;7.180;2024-01-27T02:11:35;5.77;;;2.37;;
13250;SDS011;6692;50.710;7.180;2024-01-27T02:13:35;3.37;;;2.40;;
13250;SDS011;6692;50.710;7.180;2024-01-27T02:15:36;3.97;;;2.57;;
13250;SDS011;6692;50.710;7.180;2024-01-27T02:17:37;2.20;;;2.00;;
13250;SDS011;6692;50.710;7.180;2024-01-27T02:19:38;4.17;;;2.30;;
13250;SDS011;6692;50.710;7.180;2024-01-27T02:21:39;2.42;;;2.22;;
13250;SDS011;6692;50.710;7.180;2024-01-27T02:23:39;5.00;;;2.17;;
13250;SDS011;6692;50.710;7.180;2024-01-27T02:25:40;2.73;;;2.33;;
13250;SDS011;6692;50.710;7.180;2024-01-27T02:27:41;3.87;;;2.63;;
13250;SDS011;6692;50.710;7.180;2024-01-27T02:29:42;4.37;;;2.47;;
13250;SDS011;6692;50.710;7.180;2024-01-27T02:31:42;2.50;;;2.30;;
13250;SDS011;6692;50.710;7.180;2024-01-27T02:33:44;2.47;;;2.27;;
13250;SDS011;6692;50.710;7.180;2024-01-27T02:35:44;4.45;;;2.25;;
13250;SDS011;6692;50.710;7.180;2024-01-27T02:37:46;3.00;;;2.30;;
13250;SDS011;6692;50.710;7.180;2024-01-27T02:39:47;5.80;;;2.20;;
13250;SDS011;6692;50.710;7.180;2024-01-27T02:41:48;3.55;;;2.30;;
13250;SDS011;6692;50.710;7.180;2024-01-27T02:43:49;2.57;;;2.13;;
13250;SDS011;6692;50.710;7.180;2024-01-27T02:45:50;2.53;;;2.20;;
13250;SDS011;6692;50.710;7.180;2024-01-27T02:47:52;4.93;;;2.20;;
13250;SDS011;6692;50.710;7.180;2024-01-27T02:49:52;4.53;;;2.30;;
13250;SDS011;6692;50.710;7.180;2024-01-27T02:51:54;4.47;;;2.47;;
13250;SDS011;6692;50.710;7.180;2024-01-27T02:53:55;2.85;;;2.28;;
13250;SDS011;6692;50.710;7.180;2024-01-27T02:55:57;3.58;;;2.37;;
13250;SDS011;6692;50.710;7.180;2024-01-27T02:57:58;3.85;;;2.30;;
13250;SDS011;6692;50.710;7.180;2024-01-27T02:59:59;2.92;;;2.12;;
13250;SDS011;6692;50.710;7.180;2024-01-27T03:01:59;3.90;;;2.17;;
13250;SDS011;6692;50.710;7.180;2024-01-27T03:04:00;2.10;;;1.87;;
13250;SDS011;6692;50.710;7.180;2024-01-27T03:06:01;2.30;;;2.10;;
13250;SDS011;6692;50.710;7.180;2024-01-27T03:08:03;2.57;;;2.10;;
13250;SDS011;6692;50.710;7.180;2024-01-27T03:10:04;2.25;;;1.95;;
13250;SDS011;6692;50.710;7.180;2024-01-27T03:12:07;2.30;;;2.10;;
13250;SDS011;6692;50.710;7.180;2024-01-27T03:14:08;3.22;;;2.00;;
13250;SDS011;6692;50.710;7.180;2024-01-27T03:16:08;2.20;;;2.00;;
13250;SDS011;6692;50.710;7.180;2024-01-27T03:18:09;4.13;;;2.47;;
13250;SDS011;6692;50.710;7.180;2024-01-27T03:20:10;3.90;;;2.07;;
13250;SDS011;6692;50.710;7.180;2024-01-27T03:22:11;4.05;;;2.22;;
13250;SDS011;6692;50.710;7.180;2024-01-27T03:24:12;2.63;;;2.10;;
13250;SDS011;6692;50.710;7.180;2024-01-27T03:26:13;2.00;;;1.80;;
13250;SDS011;6692;50.710;7.180;2024-01-27T03:28:14;4.00;;;1.93;;
13250;SDS011;6692;50.710;7.180;2024-01-27T03:30:15;2.50;;;2.28;;
13250;SDS011;6692;50.710;7.180;2024-01-27T03:32:17;2.45;;;1.90;;
13250;SDS011;6692;50.710;7.180;2024-01-27T03:34:19;2.37;;;2.17;;
13250;SDS011;6692;50.710;7.180;2024-01-27T03:36:19;2.25;;;2.05;;
13250;SDS011;6692;50.710;7.180;2024-01-27T03:38:20;2.03;;;1.80;;
13250;SDS011;6692;50.710;7.180;2024-01-27T03:40:21;2.67;;;2.00;;
13250;SDS011;6692;50.710;7.180;2024-01-27T03:42:21;2.43;;;2.07;;
13250;SDS011;6692;50.710;7.180;2024-01-27T03:44:23;2.17;;;1.80;;
13250;SDS011;6692;50.710;7.180;2024-01-27T03:46:24;2.90;;;2.00;;
13250;SDS011;6692;50.710;7.180;2024-01-27T03:48:24;1.57;;;1.47;;
13250;SDS011;6692;50.710;7.180;2024-01-27T03:50:26;2.43;;;2.00;;
13250;SDS011;6692;50.710;7.180;2024-01-27T03:52:26;1.87;;;1.77;;
13250;SDS011;6692;50.710;7.180;2024-01-27T03:54:27;2.47;;;2.07;;
13250;SDS011;6692;50.710;7.180;2024-01-27T03:56:28;4.23;;;2.37;;
13250;SDS011;6692;50.710;7.180;2024-01-27T03:58:29;4.37;;;2.33;;
13250;SDS011;6692;50.710;7.180;2024-01-27T04:00:30;2.47;;;2.17;;
13250;SDS011;6692;50.710;7.180;2024-01-27T04:02:31;3.03;;;1.85;;
13250;SDS011;6692;50.710;7.180;2024-01-27T04:04:32;5.03;;;2.23;;
13250;SDS011;6692;50.710;7.180;2024-01-27T04:06:36;3.78;;;2.08;;
13250;SDS011;6692;50.710;7.180;2024-01-27T04:08:37;2.37;;;2.03;;
13250;SDS011;6692;50.710;7.180;2024-01-27T04:10:38;2.57;;;2.37;;
13250;SDS011;6692;50.710;7.180;2024-01-27T04:12:39;4.70;;;2.23;;
13250;SDS011;6692;50.710;7.180;2024-01-27T04:14:39;4.87;;;2.00;;
13250;SDS011;6692;50.710;7.180;2024-01-27T04:16:40;3.53;;;2.30;;
13250;SDS011;6692;50.710;7.180;2024-01-27T04:18:41;2.20;;;2.00;;
13250;SDS011;6692;50.710;7.180;2024-01-27T04:20:42;2.93;;;2.40;;
13250;SDS011;6692;50.710;7.180;2024-01-27T04:22:43;3.40;;;2.33;;
13250;SDS011;6692;50.710;7.180;2024-01-27T04:24:44;2.27;;;2.07;;
13250;SDS011;6692;50.710;7.180;2024-01-27T04:26:45;3.93;;;2.47;;
13250;SDS011;6692;50.710;7.180;2024-01-27T04:28:47;2.67;;;2.47;;
13250;SDS011;6692;50.710;7.180;2024-01-27T04:30:47;4.60;;;2.15;;
13250;SDS011;6692;50.710;7.180;2024-01-27T04:32:48;4.33;;;2.30;;
13250;SDS011;6692;50.710;7.180;2024-01-27T04:34:50;3.75;;;2.20;;
13250;SDS011;6692;50.710;7.180;2024-01-27T04:36:50;3.37;;;2.23;;
13250;SDS011;6692;50.710;7.180;2024-01-27T04:38:51;3.97;;;2.50;;
13250;SDS011;6692;50.710;7.180;2024-01-27T04:40:52;3.60;;;2.27;;
13250;SDS011;6692;50.710;7.180;2024-01-27T04:42:53;2.27;;;2.07;;
13250;SDS011;6692;50.710;7.180;2024-01-27T04:44:53;2.57;;;2.10;;
13250;SDS011;6692;50.710;7.180;2024-01-27T04:46:54;4.00;;;2.37;;
13250;SDS011;6692;50.710;7.180;2024-01-27T04:48:55;2.40;;;2.20;;
13250;SDS011;6692;50.710;7.180;2024-01-27T04:50:55;2.33;;;2.13;;
13250;SDS011;6692;50.710;7.180;2024-01-27T04:52:56;3.20;;;2.40;;
13250;SDS011;6692;50.710;7.180;2024-01-27T04:54:57;2.60;;;2.40;;
13250;SDS011;6692;50.710;7.180;2024-01-27T04:56:57;3.23;;;2.50;;
13250;SDS011;6692;50.710;7.180;2024-01-27T04:58:58;4.13;;;3.20;;
13250;SDS011;6692;50.710;7.180;2024-01-27T05:00:59;3.30;;;3.00;;
13250;SDS011;6692;50.710;7.180;2024-01-27T05:03:00;7.03;;;3.43;;
13250;SDS011;6692;50.710;7.180;2024-01-27T05:05:01;5.77;;;3.70;;
13250;SDS011;6692;50.710;7.180;2024-01-27T05:07:01;4.93;;;3.70;;
13250;SDS011;6692;50.710;7.180;2024-01-27T05:09:02;4.30;;;3.30;;
13250;SDS011;6692;50.710;7.180;2024-01-27T05:11:03;4.77;;;3.67;;
13250;SDS011;6692;50.710;7.180;2024-01-27T05:13:04;6.60;;;4.23;;
13250;SDS011;6692;50.710;7.180;2024-01-27T05:15:04;7.07;;;4.03;;
13250;SDS011;6692;50.710;7.180;2024-01-27T05:17:05;6.80;;;4.43;;
13250;SDS011;6692;50.710;7.180;2024-01-27T05:19:06;7.17;;;4.10;;
13250;SDS011;6692;50.710;7.180;2024-01-27T05:21:07;8.37;;;4.87;;
13250;SDS011;6692;50.710;7.180;2024-01-27T05:23:09;7.87;;;5.00;;
13250;SDS011;6692;50.710;7.180;2024-01-27T05:25:09;7.40;;;4.43;;
13250;SDS011;6692;50.710;7.180;2024-01-27T05:27:10;6.83;;;4.77;;
13250;SDS011;6692;50.710;7.180;2024-01-27T05:29:11;7.80;;;5.80;;
13250;SDS011;6692;50.710;7.180;2024-01-27T05:31:12;10.03;;;5.50;;
13250;SDS011;6692;50.710;7.180;2024-01-27T05:33:12;10.20;;;6.40;;
13250;SDS011;6692;50.710;7.180;2024-01-27T05:35:13;7.33;;;5.20;;
13250;SDS011;6692;50.710;7.180;2024-01-27T05:37:14;8.03;;;4.93;;
13250;SDS011;6692;50.710;7.180;2024-01-27T05:39:15;7.53;;;5.60;;
13250;SDS011;6692;50.710;7.180;2024-01-27T05:41:15;7.23;;;5.17;;
13250;SDS011;6692;50.710;7.180;2024-01-27T05:43:16;8.80;;;4.87;;
13250;SDS011;6692;50.710;7.180;2024-01-27T05:45:17;7.43;;;4.77;;
13250;SDS011;6692;50.710;7.180;2024-01-27T05:47:17;6.67;;;5.13;;
13250;SDS011;6692;50.710;7.180;2024-01-27T05:49:18;7.47;;;5.43;;
13250;SDS011;6692;50.710;7.180;2024-01-27T05:51:20;9.23;;;4.70;;
13250;SDS011;6692;50.710;7.180;2024-01-27T05:53:20;5.87;;;4.55;;
13250;SDS011;6692;50.710;7.180;2024-01-27T05:55:22;8.93;;;4.57;;
13250;SDS011;6692;50.710;7.180;2024-01-27T05:57:22;8.52;;;4.65;;
13250;SDS011;6692;50.710;7.180;2024-01-27T05:59:23;7.87;;;4.53;;
13250;SDS011;6692;50.710;7.180;2024-01-27T06:01:25;5.20;;;4.47;;
13250;SDS011;6692;50.710;7.180;2024-01-27T06:03:25;5.43;;;4.28;;
13250;SDS011;6692;50.710;7.180;2024-01-27T06:05:26;6.00;;;4.60;;
13250;SDS011;6692;50.710;7.180;2024-01-27T06:07:27;6.50;;;4.43;;
13250;SDS011;6692;50.710;7.180;2024-01-27T06:09:28;6.27;;;4.37;;
13250;SDS011;6692;50.710;7.180;2024-01-27T06:11:29;5.63;;;4.17;;
13250;SDS011;6692;50.710;7.180;2024-01-27T06:13:30;5.22;;;3.85;;
13250;SDS011;6692;50.710;7.180;2024-01-27T06:15:30;5.93;;;3.60;;
13250;SDS011;6692;50.710;7.180;2024-01-27T06:17:31;6.03;;;4.13;;
13250;SDS011;6692;50.710;7.180;2024-01-27T06:19:32;6.47;;;3.53;;
13250;SDS011;6692;50.710;7.180;2024-01-27T06:21:33;6.20;;;3.87;;
13250;SDS011;6692;50.710;7.180;2024-01-27T06:23:33;4.37;;;3.67;;
13250;SDS011;6692;50.710;7.180;2024-01-27T06:25:34;4.03;;;3.63;;
13250;SDS011;6692;50.710;7.180;2024-01-27T06:27:35;5.73;;;3.30;;
13250;SDS011;6692;50.710;7.180;2024-01-27T06:29:35;4.83;;;4.10;;
13250;SDS011;6692;50.710;7.180;2024-01-27T06:31:36;5.27;;;3.37;;
13250;SDS011;6692;50.710;7.180;2024-01-27T06:33:37;5.03;;;3.03;;
13250;SDS011;6692;50.710;7.180;2024-01-27T06:35:38;5.77;;;3.57;;
13250;SDS011;6692;50.710;7.180;2024-01-27T06:37:38;5.10;;;3.40;;
13250;SDS011;6692;50.710;7.180;2024-01-27T06:39:39;4.83;;;3.80;;
13250;SDS011;6692;50.710;7.180;2024-01-27T06:41:40;4.87;;;3.53;;
13250;SDS011;6692;50.710;7.180;2024-01-27T06:43:41;4.87;;;3.30;;
13250;SDS011;6692;50.710;7.180;2024-01-27T06:45:41;5.13;;;3.40;;
13250;SDS011;6692;50.710;7.180;2024-01-27T06:47:42;6.57;;;3.83;;
13250;SDS011;6692;50.710;7.180;2024-01-27T06:49:44;5.67;;;4.23;;
13250;SDS011;6692;50.710;7.180;2024-01-27T06:51:45;5.10;;;3.83;;
13250;SDS011;6692;50.710;7.180;2024-01-27T06:53:45;7.90;;;4.43;;
13250;SDS011;6692;50.710;7.180;2024-01-27T06:55:47;7.57;;;4.47;;
13250;SDS011;6692;50.710;7.180;2024-01-27T06:57:47;6.28;;;4.47;;
13250;SDS011;6692;50.710;7.180;2024-01-27T06:59:48;5.00;;;4.07;;
13250;SDS011;6692;50.710;7.180;2024-01-27T07:01:49;5.63;;;4.67;;
13250;SDS011;6692;50.710;7.180;2024-01-27T07:03:50;5.63;;;4.53;;
13250;SDS011;6692;50.710;7.180;2024-01-27T07:05:50;7.10;;;4.47;;
13250;SDS011;6692;50.710;7.180;2024-01-27T07:07:51;6.40;;;3.97;;
13250;SDS011;6692;50.710;7.180;2024-01-27T07:09:52;7.33;;;3.83;;
13250;SDS011;6692;50.710;7.180;2024-01-27T07:11:53;4.50;;;3.63;;
13250;SDS011;6692;50.710;7.180;2024-01-27T07:13:53;6.13;;;4.23;;
13250;SDS011;6692;50.710;7.180;2024-01-27T07:15:55;5.20;;;4.07;;
13250;SDS011;6692;50.710;7.180;2024-01-27T07:17:56;6.18;;;3.87;;
13250;SDS011;6692;50.710;7.180;2024-01-27T07:19:57;3.93;;;3.53;;
13250;SDS011;6692;50.710;7.180;2024-01-27T07:21:59;4.40;;;4.00;;
13250;SDS011;6692;50.710;7.180;2024-01-27T07:24:00;5.07;;;3.85;;
13250;SDS011;6692;50.710;7.180;2024-01-27T07:26:01;5.43;;;3.80;;
13250;SDS011;6692;50.710;7.180;2024-01-27T07:28:02;5.23;;;3.47;;
13250;SDS011;6692;50.710;7.180;2024-01-27T07:30:03;5.75;;;3.83;;
13250;SDS011;6692;50.710;7.180;2024-01-27T07:32:04;5.28;;;4.10;;
13250;SDS011;6692;50.710;7.180;2024-01-27T07:34:05;6.27;;;3.50;;
13250;SDS011;6692;50.710;7.180;2024-01-27T07:36:06;4.03;;;3.37;;
13250;SDS011;6692;50.710;7.180;2024-01-27T07:38:07;4.07;;;3.63;;
13250;SDS011;6692;50.710;7.180;2024-01-27T07:40:09;5.10;;;3.83;;
13250;SDS011;6692;50.710;7.180;2024-01-27T07:42:10;3.65;;;3.20;;
13250;SDS011;6692;50.710;7.180;2024-01-27T07:44:13;4.27;;;3.20;;
13250;SDS011;6692;50.710;7.180;2024-01-27T07:46:12;5.10;;;3.28;;
13250;SDS011;6692;50.710;7.180;2024-01-27T07:48:13;6.27;;;3.40;;
13250;SDS011;6692;50.710;7.180;2024-01-27T07:50:14;3.83;;;2.83;;
13250;SDS011;6692;50.710;7.180;2024-01-27T07:52:15;5.73;;;3.13;;
13250;SDS011;6692;50.710;7.180;2024-01-27T07:54:15;4.77;;;3.13;;
13250;SDS011;6692;50.710;7.180;2024-01-27T07:56:17;5.87;;;3.70;;
13250;SDS011;6692;50.710;7.180;2024-01-27T07:58:18;3.60;;;3.25;;
13250;SDS011;6692;50.710;7.180;2024-01-27T08:00:19;3.97;;;3.58;;
13250;SDS011;6692;50.710;7.180;2024-01-27T08:02:20;6.05;;;4.45;;
13250;SDS011;6692;50.710;7.180;2024-01-27T08:04:22;4.90;;;4.10;;
13250;SDS011;6692;50.710;7.180;2024-01-27T08:06:27;4.28;;;3.70;;
13250;SDS011;6692;50.710;7.180;2024-01-27T08:08:27;4.75;;;4.20;;
13250;SDS011;6692;50.710;7.180;2024-01-27T08:10:28;5.33;;;3.67;;
13250;SDS011;6692;50.710;7.180;2024-01-27T08:12:29;4.17;;;3.70;;
13250;SDS011;6692;50.710;7.180;2024-01-27T08:14:30;6.47;;;4.00;;
13250;SDS011;6692;50.710;7.180;2024-01-27T08:16:31;7.35;;;4.05;;
13250;SDS011;6692;50.710;7.180;2024-01-27T08:18:31;6.33;;;3.47;;
13250;SDS011;6692;50.710;7.180;2024-01-27T08:20:32;5.63;;;3.60;;
13250;SDS011;6692;50.710;7.180;2024-01-27T08:22:33;5.30;;;3.90;;
13250;SDS011;6692;50.710;7.180;2024-01-27T08:24:34;5.13;;;3.40;;
13250;SDS011;6692;50.710;7.180;2024-01-27T08:26:34;6.57;;;4.20;;
13250;SDS011;6692;50.710;7.180;2024-01-27T08:28:35;6.00;;;4.07;;
13250;SDS011;6692;50.710;7.180;2024-01-27T08:30:36;5.30;;;3.63;;
13250;SDS011;6692;50.710;7.180;2024-01-27T08:32:37;6.43;;;4.00;;
13250;SDS011;6692;50.710;7.180;2024-01-27T08:34:38;7.10;;;4.72;;
13250;SDS011;6692;50.710;7.180;2024-01-27T08:36:39;7.93;;;4.23;;
13250;SDS011;6692;50.710;7.180;2024-01-27T08:38:40;6.90;;;4.50;;
13250;SDS011;6692;50.710;7.180;2024-01-27T08:40:41;6.03;;;4.60;;
13250;SDS011;6692;50.710;7.180;2024-01-27T08:42:42;6.80;;;4.57;;
13250;SDS011;6692;50.710;7.180;2024-01-27T08:44:42;8.20;;;3.80;;
13250;SDS011;6692;50.710;7.180;2024-01-27T08:46:43;5.93;;;4.20;;
13250;SDS011;6692;50.710;7.180;2024-01-27T08:48:44;5.90;;;4.40;;
13250;SDS011;6692;50.710;7.180;2024-01-27T08:50:44;9.10;;;4.80;;
13250;SDS011;6692;50.710;7.180;2024-01-27T08:52:45;6.47;;;4.33;;
13250;SDS011;6692;50.710;7.180;2024-01-27T08:54:48;5.68;;;4.07;;
13250;SDS011;6692;50.710;7.180;2024-01-27T08:56:49;11.07;;;4.53;;
13250;SDS011;6692;50.710;7.180;2024-01-27T08:58:50;7.32;;;4.00;;
13250;SDS011;6692;50.710;7.180;2024-01-27T09:00:51;4.73;;;4.23;;
13250;SDS011;6692;50.710;7.180;2024-01-27T09:02:52;8.18;;;4.10;;
13250;SDS011;6692;50.710;7.180;2024-01-27T09:04:54;4.63;;;3.80;;
13250;SDS011;6692;50.710;7.180;2024-01-27T09:06:55;6.37;;;3.72;;
13250;SDS011;6692;50.710;7.180;2024-01-27T09:08:57;4.25;;;3.78;;
13250;SDS011;6692;50.710;7.180;2024-01-27T09:10:58;5.55;;;4.18;;
13250;SDS011;6692;50.710;7.180;2024-01-27T09:13:00;5.57;;;3.67;;
13250;SDS011;6692;50.710;7.180;2024-01-27T09:15:00;9.63;;;4.60;;
13250;SDS011;6692;50.710;7.180;2024-01-27T09:17:01;6.10;;;3.30;;
13250;SDS011;6692;50.710;7.180;2024-01-27T09:19:02;5.28;;;3.50;;
13250;SDS011;6692;50.710;7.180;2024-01-27T09:21:03;7.47;;;3.80;;
13250;SDS011;6692;50.710;7.180;2024-01-27T09:23:04;4.75;;;3.28;;
13250;SDS011;6692;50.710;7.180;2024-01-27T09:25:05;6.00;;;3.23;;
13250;SDS011;6692;50.710;7.180;2024-01-27T09:27:06;6.22;;;3.65;;
13250;SDS011;6692;50.710;7.180;2024-01-27T09:29:07;7.13;;;3.13;;
13250;SDS011;6692;50.710;7.180;2024-01-27T09:31:08;6.97;;;3.77;;
13250;SDS011;6692;50.710;7.180;2024-01-27T09:33:08;4.47;;;3.23;;
13250;SDS011;6692;50.710;7.180;2024-01-27T09:35:09;8.07;;;3.97;;
13250;SDS011;6692;50.710;7.180;2024-01-27T09:37:10;6.57;;;3.63;;
13250;SDS011;6692;50.710;7.180;2024-01-27T09:39:11;6.77;;;4.00;;
13250;SDS011;6692;50.710;7.180;2024-01-27T09:41:12;5.93;;;3.90;;
13250;SDS011;6692;50.710;7.180;2024-01-27T09:43:13;4.93;;;3.43;;
13250;SDS011;6692;50.710;7.180;2024-01-27T09:45:13;4.57;;;3.30;;
13250;SDS011;6692;50.710;7.180;2024-01-27T09:47:15;3.93;;;3.30;;
13250;SDS011;6692;50.710;7.180;2024-01-27T09:49:16;6.57;;;3.73;;
13250;SDS011;6692;50.710;7.180;2024-01-27T09:51:17;7.95;;;3.67;;
13250;SDS011;6692;50.710;7.180;2024-01-27T09:53:18;6.20;;;3.57;;
13250;SDS011;6692;50.710;7.180;2024-01-27T09:55:19;6.40;;;3.80;;
13250;SDS011;6692;50.710;7.180;2024-01-27T09:57:20;7.97;;;4.73;;
13250;SDS011;6692;50.710;7.180;2024-01-27T09:59:21;5.20;;;3.67;;
13250;SDS011;6692;50.710;7.180;2024-01-27T10:01:23;7.12;;;4.20;;
13250;SDS011;6692;50.710;7.180;2024-01-27T10:03:23;6.97;;;4.60;;
13250;SDS011;6692;50.710;7.180;2024-01-27T10:05:24;6.87;;;4.07;;
13250;SDS011;6692;50.710;7.180;2024-01-27T10:07:25;6.63;;;3.93;;
13250;SDS011;6692;50.710;7.180;2024-01-27T10:09:25;7.07;;;4.33;;
13250;SDS011;6692;50.710;7.180;2024-01-27T10:11:26;5.43;;;3.50;;
13250;SDS011;6692;50.710;7.180;2024-01-27T10:13:27;5.20;;;3.90;;
13250;SDS011;6692;50.710;7.180;2024-01-27T10:15:28;8.13;;;4.50;;
13250;SDS011;6692;50.710;7.180;2024-01-27T10:17:30;7.80;;;4.03;;
13250;SDS011;6692;50.710;7.180;2024-01-27T10:19:31;5.22;;;4.15;;
13250;SDS011;6692;50.710;7.180;2024-01-27T10:21:32;6.07;;;4.62;;
13250;SDS011;6692;50.710;7.180;2024-01-27T10:23:38;4.83;;;3.87;;
13250;SDS011;6692;50.710;7.180;2024-01-27T10:25:36;4.90;;;4.07;;
13250;SDS011;6692;50.710;7.180;2024-01-27T10:27:34;7.37;;;4.30;;
13250;SDS011;6692;50.710;7.180;2024-01-27T10:29:35;9.53;;;5.03;;
13250;SDS011;6692;50.710;7.180;2024-01-27T10:31:36;14.77;;;5.30;;
13250;SDS011;6692;50.710;7.180;2024-01-27T10:33:37;9.20;;;5.10;;
13250;SDS011;6692;50.710;7.180;2024-01-27T10:35:38;13.00;;;5.00;;
13250;SDS011;6692;50.710;7.180;2024-01-27T10:37:38;8.60;;;4.57;;
13250;SDS011;6692;50.710;7.180;2024-01-27T10:39:39;12.33;;;5.70;;
13250;SDS011;6692;50.710;7.180;2024-01-27T10:41:40;9.47;;;4.60;;
13250;SDS011;6692;50.710;7.180;2024-01-27T10:43:41;8.70;;;4.67;;
13250;SDS011;6692;50.710;7.180;2024-01-27T10:45:42;8.57;;;3.80;;
13250;SDS011;6692;50.710;7.180;2024-01-27T10:47:42;7.97;;;4.13;;
13250;SDS011;6692;50.710;7.180;2024-01-27T10:49:43;8.93;;;3.73;;
13250;SDS011;6692;50.710;7.180;2024-01-27T10:51:45;5.63;;;3.90;;
13250;SDS011;6692;50.710;7.180;2024-01-27T10:53:44;5.67;;;4.00;;
13250;SDS011;6692;50.710;7.180;2024-01-27T10:55:45;7.70;;;3.50;;
13250;SDS011;6692;50.710;7.180;2024-01-27T10:57:46;6.53;;;3.60;;
13250;SDS011;6692;50.710;7.180;2024-01-27T11:10:18;6.73;;;3.17;;
13250;SDS011;6692;50.710;7.180;2024-01-27T11:12:19;5.63;;;2.83;;
13250;SDS011;6692;50.710;7.180;2024-01-27T11:14:19;9.83;;;3.67;;
13250;SDS011;6692;50.710;7.180;2024-01-27T11:21:15;9.57;;;3.90;;
13250;SDS011;6692;50.710;7.180;2024-01-27T11:23:16;7.17;;;4.03;;
13250;SDS011;6692;50.710;7.180;2024-01-27T11:25:17;7.30;;;3.53;;
13250;SDS011;6692;50.710;7.180;2024-01-27T11:27:17;4.47;;;2.97;;
13250;SDS011;6692;50.710;7.180;2024-01-27T11:29:18;7.33;;;3.60;;
13250;SDS011;6692;50.710;7.180;2024-01-27T11:31:19;5.57;;;3.60;;
13250;SDS011;6692;50.710;7.180;2024-01-27T11:33:19;5.93;;;3.43;;
13250;SDS011;6692;50.710;7.180;2024-01-27T11:35:20;7.67;;;3.50;;
13250;SDS011;6692;50.710;7.180;2024-01-27T11:37:22;7.87;;;3.50;;
13250;SDS011;6692;50.710;7.180;2024-01-27T11:39:26;4.27;;;3.00;;
13250;SDS011;6692;50.710;7.180;2024-01-27T11:41:27;4.47;;;3.30;;
13250;SDS011;6692;50.710;7.180;2024-01-27T11:43:28;5.33;;;3.30;;
13250;SDS011;6692;50.710;7.180;2024-01-27T11:45:29;7.80;;;4.03;;
13250;SDS011;6692;50.710;7.180;2024-01-27T11:47:30;8.33;;;4.37;;
13250;SDS011;6692;50.710;7.180;2024-01-27T11:49:30;7.90;;;4.07;;
13250;SDS011;6692;50.710;7.180;2024-01-27T11:51:31;4.80;;;3.50;;
13250;SDS011;6692;50.710;7.180;2024-01-27T11:53:32;8.67;;;4.00;;
13250;SDS011;6692;50.710;7.180;2024-01-27T11:55:33;5.70;;;3.70;;
13250;SDS011;6692;50.710;7.180;2024-01-27T11:57:33;6.17;;;3.20;;
13250;SDS011;6692;50.710;7.180;2024-01-27T11:59:34;6.63;;;4.00;;
13250;SDS011;6692;50.710;7.180;2024-01-27T12:01:35;10.43;;;3.90;;
13250;SDS011;6692;50.710;7.180;2024-01-27T12:03:35;6.03;;;3.43;;
13250;SDS011;6692;50.710;7.180;2024-01-27T12:05:36;9.60;;;4.00;;
13250;SDS011;6692;50.710;7.180;2024-01-27T12:07:37;7.30;;;3.60;;
13250;SDS011;6692;50.710;7.180;2024-01-27T12:09:38;9.60;;;5.13;;
13250;SDS011;6692;50.710;7.180;2024-01-27T12:11:38;7.63;;;4.40;;
13250;SDS011;6692;50.710;7.180;2024-01-27T12:13:41;9.17;;;4.40;;
13250;SDS011;6692;50.710;7.180;2024-01-27T12:15:42;7.10;;;4.30;;
13250;SDS011;6692;50.710;7.180;2024-01-27T12:17:42;6.77;;;4.10;;
13250;SDS011;6692;50.710;7.180;2024-01-27T12:19:46;6.80;;;4.00;;
13250;SDS011;6692;50.710;7.180;2024-01-27T12:21:47;5.87;;;3.73;;
13250;SDS011;6692;50.710;7.180;2024-01-27T12:23:51;8.77;;;4.10;;
13250;SDS011;6692;50.710;7.180;2024-01-27T12:25:54;5.50;;;3.43;;
13250;SDS011;6692;50.710;7.180;2024-01-27T12:27:54;5.37;;;3.60;;
13250;SDS011;6692;50.710;7.180;2024-01-27T12:29:55;5.67;;;3.70;;
13250;SDS011;6692;50.710;7.180;2024-01-27T12:31:56;6.30;;;3.60;;
13250;SDS011;6692;50.710;7.180;2024-01-27T12:33:56;6.37;;;3.53;;